sensor_id;sensor_type;location;lat;lon;timestamp;P1;durP1;ratioP1;P2;durP2;ratioP2
13061;SDS011;6597;52.218;9.882;2024-03-23T00:55:49;14.13;;;4.03;;
13061;SDS011;6597;52.218;9.882;2024-03-23T00:58:15;9.50;;;3.87;;
13061;SDS011;6597;52.218;9.882;2024-03-23T01:00:41;14.83;;;4.10;;
13061;SDS011;6597;52.218;9.882;2024-03-23T01:03:08;10.37;;;4.53;;
13061;SDS011;6597;52.218;9.882;2024-03-23T01:05:34;9.43;;;4.43;;
13061;SDS011;6597;52.218;9.882;2024-03-23T01:08:00;13.63;;;4.93;;
13061;SDS011;6597;52.218;9.882;2024-03-23T01:10:28;11.33;;;4.83;;
13061;SDS011;6597;52.218;9.882;2024-03-23T01:12:55;13.03;;;4.60;;
13061;SDS011;6597;52.218;9.882;2024-03-23T01:15:21;10.93;;;4.67;;
13061;SDS011;6597;52.218;9.882;2024-03-23T01:17:48;17.90;;;4.77;;
13061;SDS011;6597;52.218;9.882;2024-03-23T01:20:14;13.83;;;4.90;;
13061;SDS011;6597;52.218;9.882;2024-03-23T01:22:40;12.13;;;5.13;;
13061;SDS011;6597;52.218;9.882;2024-03-23T01:25:06;11.33;;;4.57;;
13061;SDS011;6597;52.218;9.882;2024-03-23T01:27:34;12.00;;;4.77;;
13061;SDS011;6597;52.218;9.882;2024-03-23T01:30:00;13.30;;;5.03;;
13061;SDS011;6597;52.218;9.882;2024-03-23T01:32:27;19.17;;;5.13;;
13061;SDS011;6597;52.218;9.882;2024-03-23T01:34:53;11.50;;;4.73;;
13061;SDS011;6597;52.218;9.882;2024-03-23T01:37:19;14.87;;;5.13;;
13061;SDS011;6597;52.218;9.882;2024-03-23T01:39:45;9.33;;;5.10;;
13061;SDS011;6597;52.218;9.882;2024-03-23T01:42:12;9.07;;;4.60;;
13061;SDS011;6597;52.218;9.882;2024-03-23T01:44:39;11.63;;;4.63;;
13061;SDS011;6597;52.218;9.882;2024-03-23T01:47:06;14.87;;;5.20;;
13061;SDS011;6597;52.218;9.882;2024-03-23T01:49:32;14.60;;;5.13;;
13061;SDS011;6597;52.218;9.882;2024-03-23T01:52:00;11.57;;;4.17;;
13061;SDS011;6597;52.218;9.882;2024-03-23T01:54:26;13.93;;;4.77;;
13061;SDS011;6597;52.218;9.882;2024-03-23T01:56:53;12.77;;;4.67;;
13061;SDS011;6597;52.218;9.882;2024-03-23T01:59:19;15.10;;;4.93;;
13061;SDS011;6597;52.218;9.882;2024-03-23T02:01:47;15.73;;;4.47;;
13061;SDS011;6597;52.218;9.882;2024-03-23T02:04:13;19.53;;;5.77;;
13061;SDS011;6597;52.218;9.882;2024-03-23T02:06:40;10.93;;;4.77;;
13061;SDS011;6597;52.218;9.882;2024-03-23T02:09:06;12.67;;;4.63;;
13061;SDS011;6597;52.218;9.882;2024-03-23T02:11:33;13.13;;;4.93;;
13061;SDS011;6597;52.218;9.882;2024-03-23T02:13:58;15.43;;;4.47;;
13061;SDS011;6597;52.218;9.882;2024-03-23T02:16:33;20.30;;;5.47;;
13061;SDS011;6597;52.218;9.882;2024-03-23T02:19:00;15.50;;;4.90;;
13061;SDS011;6597;52.218;9.882;2024-03-23T02:21:26;9.33;;;4.83;;
13061;SDS011;6597;52.218;9.882;2024-03-23T02:23:58;12.63;;;4.50;;
13061;SDS011;6597;52.218;9.882;2024-03-23T02:26:24;9.93;;;4.70;;
13061;SDS011;6597;52.218;9.882;2024-03-23T02:28:50;12.20;;;4.47;;
13061;SDS011;6597;52.218;9.882;2024-03-23T02:31:16;12.43;;;4.47;;
13061;SDS011;6597;52.218;9.882;2024-03-23T02:33:43;12.23;;;4.40;;
13061;SDS011;6597;52.218;9.882;2024-03-23T02:36:09;6.90;;;4.07;;
13061;SDS011;6597;52.218;9.882;2024-03-23T02:38:35;16.47;;;4.57;;
13061;SDS011;6597;52.218;9.882;2024-03-23T02:41:03;10.40;;;3.90;;
13061;SDS011;6597;52.218;9.882;2024-03-23T02:43:31;8.67;;;3.67;;
13061;SDS011;6597;52.218;9.882;2024-03-23T02:45:57;12.67;;;3.90;;
13061;SDS011;6597;52.218;9.882;2024-03-23T02:48:23;10.77;;;3.73;;
13061;SDS011;6597;52.218;9.882;2024-03-23T02:50:49;9.97;;;3.77;;
13061;SDS011;6597;52.218;9.882;2024-03-23T02:53:16;11.50;;;3.63;;
13061;SDS011;6597;52.218;9.882;2024-03-23T02:55:42;9.30;;;3.97;;
13061;SDS011;6597;52.218;9.882;2024-03-23T02:58:10;12.03;;;4.03;;
13061;SDS011;6597;52.218;9.882;2024-03-23T03:00:36;8.93;;;3.97;;
13061;SDS011;6597;52.218;9.882;2024-03-23T03:03:03;8.00;;;3.40;;
13061;SDS011;6597;52.218;9.882;2024-03-23T03:05:29;8.00;;;3.70;;
13061;SDS011;6597;52.218;9.882;2024-03-23T03:07:56;12.43;;;4.13;;
13061;SDS011;6597;52.218;9.882;2024-03-23T03:10:22;15.87;;;4.07;;
13061;SDS011;6597;52.218;9.882;2024-03-23T03:12:48;10.73;;;4.27;;
13061;SDS011;6597;52.218;9.882;2024-03-23T03:15:15;11.23;;;4.30;;
13061;SDS011;6597;52.218;9.882;2024-03-23T03:17:42;7.60;;;3.97;;
13061;SDS011;6597;52.218;9.882;2024-03-23T03:20:08;12.53;;;4.13;;
13061;SDS011;6597;52.218;9.882;2024-03-23T03:22:38;11.23;;;3.80;;
13061;SDS011;6597;52.218;9.882;2024-03-23T03:25:04;11.93;;;4.00;;
13061;SDS011;6597;52.218;9.882;2024-03-23T03:27:32;8.30;;;4.63;;
13061;SDS011;6597;52.218;9.882;2024-03-23T03:29:59;9.03;;;4.87;;
13061;SDS011;6597;52.218;9.882;2024-03-23T03:32:28;16.50;;;4.63;;
13061;SDS011;6597;52.218;9.882;2024-03-23T03:34:54;14.07;;;5.27;;
13061;SDS011;6597;52.218;9.882;2024-03-23T03:37:21;12.90;;;5.47;;
13061;SDS011;6597;52.218;9.882;2024-03-23T03:39:47;14.27;;;5.13;;
13061;SDS011;6597;52.218;9.882;2024-03-23T03:42:14;14.93;;;6.00;;
13061;SDS011;6597;52.218;9.882;2024-03-23T03:44:40;14.23;;;6.03;;
13061;SDS011;6597;52.218;9.882;2024-03-23T03:47:06;12.30;;;6.10;;
13061;SDS011;6597;52.218;9.882;2024-03-23T03:49:33;15.30;;;6.10;;
13061;SDS011;6597;52.218;9.882;2024-03-23T03:52:00;12.60;;;6.57;;
13061;SDS011;6597;52.218;9.882;2024-03-23T03:54:27;12.10;;;6.37;;
13061;SDS011;6597;52.218;9.882;2024-03-23T03:56:54;16.87;;;6.53;;
13061;SDS011;6597;52.218;9.882;2024-03-23T03:59:19;13.93;;;5.57;;
13061;SDS011;6597;52.218;9.882;2024-03-23T04:01:46;17.37;;;5.47;;
13061;SDS011;6597;52.218;9.882;2024-03-23T04:04:12;12.37;;;5.03;;
13061;SDS011;6597;52.218;9.882;2024-03-23T04:06:42;13.10;;;5.23;;
13061;SDS011;6597;52.218;9.882;2024-03-23T04:09:08;12.00;;;5.17;;
13061;SDS011;6597;52.218;9.882;2024-03-23T04:11:35;12.03;;;4.70;;
13061;SDS011;6597;52.218;9.882;2024-03-23T04:14:01;10.10;;;4.60;;
13061;SDS011;6597;52.218;9.882;2024-03-23T04:16:28;14.63;;;4.67;;
13061;SDS011;6597;52.218;9.882;2024-03-23T04:18:55;12.97;;;4.43;;
13061;SDS011;6597;52.218;9.882;2024-03-23T04:21:21;10.33;;;4.37;;
13061;SDS011;6597;52.218;9.882;2024-03-23T04:23:49;9.23;;;4.10;;
13061;SDS011;6597;52.218;9.882;2024-03-23T04:26:16;14.97;;;4.50;;
13061;SDS011;6597;52.218;9.882;2024-03-23T04:28:41;9.57;;;4.50;;
13061;SDS011;6597;52.218;9.882;2024-03-23T04:31:09;10.50;;;3.97;;
13061;SDS011;6597;52.218;9.882;2024-03-23T04:33:34;11.53;;;4.10;;
13061;SDS011;6597;52.218;9.882;2024-03-23T04:36:01;10.27;;;3.97;;
13061;SDS011;6597;52.218;9.882;2024-03-23T04:38:28;9.90;;;3.77;;
13061;SDS011;6597;52.218;9.882;2024-03-23T04:40:56;12.93;;;3.63;;
13061;SDS011;6597;52.218;9.882;2024-03-23T04:43:23;11.33;;;3.80;;
13061;SDS011;6597;52.218;9.882;2024-03-23T04:45:50;9.37;;;3.70;;
13061;SDS011;6597;52.218;9.882;2024-03-23T04:48:17;8.70;;;3.60;;
13061;SDS011;6597;52.218;9.882;2024-03-23T04:50:45;9.73;;;3.37;;
13061;SDS011;6597;52.218;9.882;2024-03-23T04:53:12;12.73;;;3.67;;
13061;SDS011;6597;52.218;9.882;2024-03-23T04:55:39;9.93;;;3.80;;
13061;SDS011;6597;52.218;9.882;2024-03-23T04:58:07;11.37;;;3.43;;
13061;SDS011;6597;52.218;9.882;2024-03-23T05:00:33;9.70;;;3.40;;
13061;SDS011;6597;52.218;9.882;2024-03-23T05:03:00;11.30;;;3.40;;
13061;SDS011;6597;52.218;9.882;2024-03-23T05:05:26;19.03;;;4.23;;
13061;SDS011;6597;52.218;9.882;2024-03-23T05:07:53;11.00;;;3.33;;
13061;SDS011;6597;52.218;9.882;2024-03-23T05:10:18;9.10;;;3.40;;
13061;SDS011;6597;52.218;9.882;2024-03-23T05:12:45;13.13;;;3.60;;
13061;SDS011;6597;52.218;9.882;2024-03-23T05:15:12;9.70;;;3.97;;
13061;SDS011;6597;52.218;9.882;2024-03-23T05:17:39;12.23;;;4.40;;
13061;SDS011;6597;52.218;9.882;2024-03-23T05:20:05;11.17;;;4.33;;
13061;SDS011;6597;52.218;9.882;2024-03-23T05:22:34;10.13;;;3.77;;
13061;SDS011;6597;52.218;9.882;2024-03-23T05:25:00;13.00;;;4.50;;
13061;SDS011;6597;52.218;9.882;2024-03-23T05:27:29;14.37;;;4.70;;
13061;SDS011;6597;52.218;9.882;2024-03-23T05:29:55;12.83;;;4.30;;
13061;SDS011;6597;52.218;9.882;2024-03-23T05:32:23;8.80;;;3.50;;
13061;SDS011;6597;52.218;9.882;2024-03-23T05:34:49;11.23;;;4.37;;
13061;SDS011;6597;52.218;9.882;2024-03-23T05:37:20;12.03;;;4.20;;
13061;SDS011;6597;52.218;9.882;2024-03-23T05:39:46;10.13;;;4.07;;
13061;SDS011;6597;52.218;9.882;2024-03-23T05:42:14;8.27;;;3.90;;
13061;SDS011;6597;52.218;9.882;2024-03-23T05:44:41;13.87;;;3.87;;
13061;SDS011;6597;52.218;9.882;2024-03-23T05:47:08;13.50;;;3.87;;
13061;SDS011;6597;52.218;9.882;2024-03-23T05:49:35;8.67;;;3.60;;
13061;SDS011;6597;52.218;9.882;2024-03-23T05:52:02;15.27;;;3.80;;
13061;SDS011;6597;52.218;9.882;2024-03-23T05:54:28;9.10;;;3.87;;
13061;SDS011;6597;52.218;9.882;2024-03-23T05:56:55;9.43;;;3.40;;
13061;SDS011;6597;52.218;9.882;2024-03-23T05:59:21;9.50;;;3.23;;
13061;SDS011;6597;52.218;9.882;2024-03-23T06:01:48;11.17;;;2.90;;
13061;SDS011;6597;52.218;9.882;2024-03-23T06:04:14;11.63;;;2.33;;
13061;SDS011;6597;52.218;9.882;2024-03-23T06:06:42;12.60;;;2.30;;
13061;SDS011;6597;52.218;9.882;2024-03-23T06:09:08;13.83;;;3.10;;
13061;SDS011;6597;52.218;9.882;2024-03-23T06:11:34;14.23;;;2.70;;
13061;SDS011;6597;52.218;9.882;2024-03-23T06:14:00;9.93;;;2.67;;
13061;SDS011;6597;52.218;9.882;2024-03-23T06:16:27;11.17;;;2.47;;
13061;SDS011;6597;52.218;9.882;2024-03-23T06:18:53;11.20;;;2.53;;
13061;SDS011;6597;52.218;9.882;2024-03-23T06:21:20;10.30;;;2.13;;
13061;SDS011;6597;52.218;9.882;2024-03-23T06:23:47;12.87;;;2.60;;
13061;SDS011;6597;52.218;9.882;2024-03-23T06:26:16;11.30;;;2.87;;
13061;SDS011;6597;52.218;9.882;2024-03-23T06:28:42;5.70;;;2.37;;
13061;SDS011;6597;52.218;9.882;2024-03-23T06:31:09;10.43;;;2.63;;
13061;SDS011;6597;52.218;9.882;2024-03-23T06:33:35;14.13;;;2.80;;
13061;SDS011;6597;52.218;9.882;2024-03-23T06:36:01;19.63;;;3.33;;
13061;SDS011;6597;52.218;9.882;2024-03-23T06:38:28;10.90;;;2.73;;
13061;SDS011;6597;52.218;9.882;2024-03-23T06:40:56;14.33;;;3.30;;
13061;SDS011;6597;52.218;9.882;2024-03-23T06:43:22;14.37;;;3.40;;
13061;SDS011;6597;52.218;9.882;2024-03-23T06:45:52;9.73;;;3.00;;
13061;SDS011;6597;52.218;9.882;2024-03-23T06:48:18;7.93;;;3.10;;
13061;SDS011;6597;52.218;9.882;2024-03-23T06:50:45;11.70;;;3.07;;
13061;SDS011;6597;52.218;9.882;2024-03-23T06:53:11;10.53;;;2.80;;
13061;SDS011;6597;52.218;9.882;2024-03-23T06:55:38;10.27;;;3.23;;
13061;SDS011;6597;52.218;9.882;2024-03-23T06:58:05;11.63;;;2.77;;
13061;SDS011;6597;52.218;9.882;2024-03-23T07:00:32;15.73;;;3.23;;
13061;SDS011;6597;52.218;9.882;2024-03-23T07:02:58;13.97;;;3.57;;
13061;SDS011;6597;52.218;9.882;2024-03-23T07:05:24;11.27;;;2.80;;
13061;SDS011;6597;52.218;9.882;2024-03-23T07:07:50;10.80;;;3.17;;
13061;SDS011;6597;52.218;9.882;2024-03-23T07:10:17;11.07;;;3.37;;
13061;SDS011;6597;52.218;9.882;2024-03-23T07:12:43;7.33;;;2.33;;
13061;SDS011;6597;52.218;9.882;2024-03-23T07:15:11;17.17;;;3.43;;
13061;SDS011;6597;52.218;9.882;2024-03-23T07:17:36;11.13;;;3.20;;
13061;SDS011;6597;52.218;9.882;2024-03-23T07:20:03;11.97;;;3.40;;
13061;SDS011;6597;52.218;9.882;2024-03-23T07:22:30;13.57;;;3.47;;
13061;SDS011;6597;52.218;9.882;2024-03-23T07:24:56;9.80;;;3.40;;
13061;SDS011;6597;52.218;9.882;2024-03-23T07:27:22;15.00;;;3.77;;
13061;SDS011;6597;52.218;9.882;2024-03-23T07:29:49;17.57;;;3.73;;
13061;SDS011;6597;52.218;9.882;2024-03-23T07:32:16;14.97;;;3.10;;
13061;SDS011;6597;52.218;9.882;2024-03-23T07:34:43;13.00;;;3.47;;
13061;SDS011;6597;52.218;9.882;2024-03-23T07:37:09;14.50;;;3.37;;
13061;SDS011;6597;52.218;9.882;2024-03-23T07:39:36;11.27;;;2.87;;
13061;SDS011;6597;52.218;9.882;2024-03-23T07:42:02;14.80;;;3.17;;
13061;SDS011;6597;52.218;9.882;2024-03-23T07:44:29;10.70;;;3.43;;
13061;SDS011;6597;52.218;9.882;2024-03-23T07:46:55;16.93;;;3.93;;
13061;SDS011;6597;52.218;9.882;2024-03-23T07:49:23;9.47;;;3.33;;
13061;SDS011;6597;52.218;9.882;2024-03-23T07:51:48;11.33;;;3.33;;
13061;SDS011;6597;52.218;9.882;2024-03-23T07:54:15;14.60;;;3.90;;
13061;SDS011;6597;52.218;9.882;2024-03-23T07:56:41;15.00;;;3.63;;
13061;SDS011;6597;52.218;9.882;2024-03-23T07:59:07;16.57;;;4.37;;
13061;SDS011;6597;52.218;9.882;2024-03-23T08:01:33;13.53;;;4.10;;
13061;SDS011;6597;52.218;9.882;2024-03-23T08:04:00;13.83;;;4.00;;
13061;SDS011;6597;52.218;9.882;2024-03-23T08:06:27;11.57;;;3.87;;
13061;SDS011;6597;52.218;9.882;2024-03-23T08:08:55;14.93;;;3.30;;
13061;SDS011;6597;52.218;9.882;2024-03-23T08:11:25;13.30;;;3.93;;
13061;SDS011;6597;52.218;9.882;2024-03-23T08:13:51;12.20;;;3.50;;
13061;SDS011;6597;52.218;9.882;2024-03-23T08:16:17;11.27;;;4.30;;
13061;SDS011;6597;52.218;9.882;2024-03-23T08:18:44;15.27;;;5.27;;
13061;SDS011;6597;52.218;9.882;2024-03-23T08:21:10;17.97;;;5.63;;
13061;SDS011;6597;52.218;9.882;2024-03-23T08:23:38;19.63;;;6.47;;
13061;SDS011;6597;52.218;9.882;2024-03-23T08:26:05;20.37;;;7.43;;
13061;SDS011;6597;52.218;9.882;2024-03-23T08:28:32;21.40;;;7.73;;
13061;SDS011;6597;52.218;9.882;2024-03-23T08:31:00;24.57;;;7.90;;
13061;SDS011;6597;52.218;9.882;2024-03-23T08:33:27;22.23;;;6.90;;
13061;SDS011;6597;52.218;9.882;2024-03-23T08:35:53;16.27;;;6.33;;
13061;SDS011;6597;52.218;9.882;2024-03-23T08:38:21;24.13;;;9.47;;
13061;SDS011;6597;52.218;9.882;2024-03-23T08:40:55;32.97;;;8.10;;
13061;SDS011;6597;52.218;9.882;2024-03-23T08:43:23;21.23;;;8.37;;
13061;SDS011;6597;52.218;9.882;2024-03-23T08:45:48;32.57;;;11.23;;
13061;SDS011;6597;52.218;9.882;2024-03-23T08:48:15;21.67;;;8.67;;
13061;SDS011;6597;52.218;9.882;2024-03-23T08:50:41;34.03;;;10.33;;
13061;SDS011;6597;52.218;9.882;2024-03-23T08:53:08;25.23;;;9.27;;
13061;SDS011;6597;52.218;9.882;2024-03-23T08:55:33;36.93;;;10.67;;
13061;SDS011;6597;52.218;9.882;2024-03-23T08:58:02;26.50;;;9.10;;
13061;SDS011;6597;52.218;9.882;2024-03-23T09:00:29;28.27;;;8.50;;
13061;SDS011;6597;52.218;9.882;2024-03-23T09:02:56;23.00;;;7.83;;
13061;SDS011;6597;52.218;9.882;2024-03-23T09:05:22;24.30;;;7.40;;
13061;SDS011;6597;52.218;9.882;2024-03-23T09:07:50;21.67;;;7.53;;
13061;SDS011;6597;52.218;9.882;2024-03-23T09:10:16;17.80;;;5.63;;
13061;SDS011;6597;52.218;9.882;2024-03-23T09:12:42;16.57;;;6.77;;
13061;SDS011;6597;52.218;9.882;2024-03-23T09:15:10;16.43;;;5.33;;
13061;SDS011;6597;52.218;9.882;2024-03-23T09:17:36;23.90;;;6.20;;
13061;SDS011;6597;52.218;9.882;2024-03-23T09:20:02;15.77;;;4.83;;
13061;SDS011;6597;52.218;9.882;2024-03-23T09:22:29;20.87;;;5.00;;
13061;SDS011;6597;52.218;9.882;2024-03-23T09:24:55;19.63;;;5.57;;
13061;SDS011;6597;52.218;9.882;2024-03-23T09:27:22;21.47;;;5.37;;
13061;SDS011;6597;52.218;9.882;2024-03-23T09:29:47;15.33;;;5.07;;
13061;SDS011;6597;52.218;9.882;2024-03-23T09:32:16;18.37;;;5.20;;
13061;SDS011;6597;52.218;9.882;2024-03-23T09:34:41;18.80;;;5.57;;
13061;SDS011;6597;52.218;9.882;2024-03-23T09:37:08;19.20;;;6.03;;
13061;SDS011;6597;52.218;9.882;2024-03-23T09:39:34;16.87;;;5.70;;
13061;SDS011;6597;52.218;9.882;2024-03-23T09:42:00;17.73;;;5.20;;
13061;SDS011;6597;52.218;9.882;2024-03-23T09:44:26;20.23;;;5.53;;
13061;SDS011;6597;52.218;9.882;2024-03-23T09:46:54;20.03;;;5.10;;
13061;SDS011;6597;52.218;9.882;2024-03-23T09:49:22;16.90;;;5.30;;
13061;SDS011;6597;52.218;9.882;2024-03-23T09:51:49;14.77;;;4.53;;
13061;SDS011;6597;52.218;9.882;2024-03-23T09:54:16;18.20;;;4.47;;
13061;SDS011;6597;52.218;9.882;2024-03-23T09:56:42;15.63;;;4.13;;
13061;SDS011;6597;52.218;9.882;2024-03-23T09:59:08;19.93;;;5.50;;
13061;SDS011;6597;52.218;9.882;2024-03-23T10:01:35;15.90;;;4.40;;
13061;SDS011;6597;52.218;9.882;2024-03-23T10:04:01;8.30;;;3.73;;
13061;SDS011;6597;52.218;9.882;2024-03-23T10:06:30;12.93;;;4.47;;
13061;SDS011;6597;52.218;9.882;2024-03-23T10:08:56;14.43;;;4.27;;
13061;SDS011;6597;52.218;9.882;2024-03-23T10:11:23;17.37;;;4.20;;
13061;SDS011;6597;52.218;9.882;2024-03-23T10:13:50;14.00;;;3.70;;
13061;SDS011;6597;52.218;9.882;2024-03-23T10:16:21;19.17;;;4.53;;
13061;SDS011;6597;52.218;9.882;2024-03-23T10:18:47;14.80;;;3.77;;
13061;SDS011;6597;52.218;9.882;2024-03-23T10:21:14;15.87;;;3.97;;
13061;SDS011;6597;52.218;9.882;2024-03-23T10:23:42;13.33;;;3.80;;
13061;SDS011;6597;52.218;9.882;2024-03-23T10:26:13;12.83;;;3.53;;
13061;SDS011;6597;52.218;9.882;2024-03-23T10:28:50;14.70;;;4.00;;
13061;SDS011;6597;52.218;9.882;2024-03-23T10:31:18;14.60;;;4.00;;
13061;SDS011;6597;52.218;9.882;2024-03-23T10:33:45;16.77;;;3.57;;
13061;SDS011;6597;52.218;9.882;2024-03-23T10:36:13;24.70;;;4.63;;
13061;SDS011;6597;52.218;9.882;2024-03-23T10:38:39;19.23;;;4.00;;
13061;SDS011;6597;52.218;9.882;2024-03-23T10:41:09;14.03;;;3.50;;
13061;SDS011;6597;52.218;9.882;2024-03-23T10:43:35;12.93;;;3.40;;
13061;SDS011;6597;52.218;9.882;2024-03-23T10:46:03;13.97;;;4.30;;
13061;SDS011;6597;52.218;9.882;2024-03-23T10:48:29;12.60;;;3.83;;
13061;SDS011;6597;52.218;9.882;2024-03-23T10:50:56;9.63;;;3.17;;
13061;SDS011;6597;52.218;9.882;2024-03-23T10:53:23;10.03;;;3.90;;
13061;SDS011;6597;52.218;9.882;2024-03-23T10:55:53;12.87;;;3.40;;
13061;SDS011;6597;52.218;9.882;2024-03-23T10:58:23;5.87;;;2.50;;
13061;SDS011;6597;52.218;9.882;2024-03-23T11:00:54;6.07;;;1.80;;
13061;SDS011;6597;52.218;9.882;2024-03-23T11:03:29;6.53;;;2.07;;
13061;SDS011;6597;52.218;9.882;2024-03-23T11:05:56;5.37;;;2.27;;
13061;SDS011;6597;52.218;9.882;2024-03-23T11:11:11;8.17;;;2.60;;
13061;SDS011;6597;52.218;9.882;2024-03-23T11:13:39;6.63;;;2.80;;
13061;SDS011;6597;52.218;9.882;2024-03-23T11:16:12;7.57;;;2.73;;
13061;SDS011;6597;52.218;9.882;2024-03-23T11:18:39;11.33;;;3.67;;
13061;SDS011;6597;52.218;9.882;2024-03-23T11:21:06;9.63;;;3.20;;
13061;SDS011;6597;52.218;9.882;2024-03-23T11:23:33;9.97;;;3.17;;
13061;SDS011;6597;52.218;9.882;2024-03-23T11:25:59;11.47;;;3.30;;
13061;SDS011;6597;52.218;9.882;2024-03-23T11:28:26;7.07;;;2.97;;
13061;SDS011;6597;52.218;9.882;2024-03-23T11:30:53;10.17;;;3.53;;
13061;SDS011;6597;52.218;9.882;2024-03-23T11:33:19;7.57;;;3.20;;
13061;SDS011;6597;52.218;9.882;2024-03-23T11:35:45;12.67;;;3.43;;
13061;SDS011;6597;52.218;9.882;2024-03-23T11:38:12;7.07;;;2.37;;
13061;SDS011;6597;52.218;9.882;2024-03-23T11:40:39;6.13;;;2.50;;
13061;SDS011;6597;52.218;9.882;2024-03-23T11:43:07;11.17;;;3.00;;
13061;SDS011;6597;52.218;9.882;2024-03-23T11:45:35;7.03;;;3.03;;
13061;SDS011;6597;52.218;9.882;2024-03-23T11:48:05;6.40;;;2.80;;
13061;SDS011;6597;52.218;9.882;2024-03-23T11:50:32;7.23;;;3.17;;
13061;SDS011;6597;52.218;9.882;2024-03-23T11:53:06;9.33;;;2.70;;
13061;SDS011;6597;52.218;9.882;2024-03-23T11:55:41;8.23;;;3.53;;
13061;SDS011;6597;52.218;9.882;2024-03-23T11:58:08;6.53;;;2.80;;
13061;SDS011;6597;52.218;9.882;2024-03-23T12:00:34;9.10;;;3.43;;
13061;SDS011;6597;52.218;9.882;2024-03-23T12:03:01;9.17;;;3.17;;
13061;SDS011;6597;52.218;9.882;2024-03-23T12:05:28;9.47;;;3.53;;
13061;SDS011;6597;52.218;9.882;2024-03-23T12:07:55;6.60;;;2.97;;
13061;SDS011;6597;52.218;9.882;2024-03-23T12:10:40;11.20;;;3.63;;
13061;SDS011;6597;52.218;9.882;2024-03-23T12:13:07;10.77;;;3.57;;
13061;SDS011;6597;52.218;9.882;2024-03-23T12:15:32;7.97;;;3.70;;
13061;SDS011;6597;52.218;9.882;2024-03-23T12:18:06;8.83;;;3.03;;
13061;SDS011;6597;52.218;9.882;2024-03-23T12:20:34;10.53;;;3.77;;
13061;SDS011;6597;52.218;9.882;2024-03-23T12:23:10;14.10;;;3.83;;
13061;SDS011;6597;52.218;9.882;2024-03-23T12:25:41;19.17;;;4.23;;
13061;SDS011;6597;52.218;9.882;2024-03-23T12:28:08;13.30;;;3.00;;
13061;SDS011;6597;52.218;9.882;2024-03-23T12:30:34;12.87;;;3.30;;
13061;SDS011;6597;52.218;9.882;2024-03-23T12:33:01;13.80;;;2.87;;
13061;SDS011;6597;52.218;9.882;2024-03-23T12:35:28;13.73;;;3.47;;
13061;SDS011;6597;52.218;9.882;2024-03-23T12:37:56;11.30;;;3.10;;
13061;SDS011;6597;52.218;9.882;2024-03-23T12:40:22;32.53;;;9.73;;
13061;SDS011;6597;52.218;9.882;2024-03-23T12:42:49;10.80;;;2.97;;
13061;SDS011;6597;52.218;9.882;2024-03-23T12:45:15;10.77;;;2.70;;
13061;SDS011;6597;52.218;9.882;2024-03-23T12:47:41;10.13;;;2.50;;
13061;SDS011;6597;52.218;9.882;2024-03-23T12:50:07;12.90;;;2.90;;
13061;SDS011;6597;52.218;9.882;2024-03-23T12:52:35;15.83;;;3.20;;
13061;SDS011;6597;52.218;9.882;2024-03-23T12:55:02;14.83;;;3.53;;
13061;SDS011;6597;52.218;9.882;2024-03-23T12:57:30;11.47;;;2.87;;
13061;SDS011;6597;52.218;9.882;2024-03-23T12:59:57;17.10;;;3.83;;
13061;SDS011;6597;52.218;9.882;2024-03-23T13:02:23;18.40;;;3.13;;
13061;SDS011;6597;52.218;9.882;2024-03-23T13:04:49;9.43;;;2.33;;
13061;SDS011;6597;52.218;9.882;2024-03-23T13:07:17;8.83;;;2.43;;
13061;SDS011;6597;52.218;9.882;2024-03-23T13:09:43;7.83;;;2.27;;
13061;SDS011;6597;52.218;9.882;2024-03-23T13:12:11;9.93;;;2.50;;
13061;SDS011;6597;52.218;9.882;2024-03-23T13:14:37;6.13;;;2.17;;
13061;SDS011;6597;52.218;9.882;2024-03-23T13:17:05;7.27;;;2.00;;
13061;SDS011;6597;52.218;9.882;2024-03-23T13:19:31;7.70;;;2.10;;
13061;SDS011;6597;52.218;9.882;2024-03-23T13:21:57;8.63;;;1.83;;
13061;SDS011;6597;52.218;9.882;2024-03-23T13:24:23;9.13;;;1.83;;
13061;SDS011;6597;52.218;9.882;2024-03-23T13:26:51;10.23;;;2.17;;
13061;SDS011;6597;52.218;9.882;2024-03-23T13:29:18;10.33;;;2.20;;
13061;SDS011;6597;52.218;9.882;2024-03-23T13:31:45;18.80;;;3.10;;
13061;SDS011;6597;52.218;9.882;2024-03-23T13:34:12;19.53;;;2.83;;
13061;SDS011;6597;52.218;9.882;2024-03-23T13:36:40;7.17;;;2.20;;
13061;SDS011;6597;52.218;9.882;2024-03-23T13:39:06;3.67;;;1.80;;
13061;SDS011;6597;52.218;9.882;2024-03-23T13:41:37;2.53;;;1.63;;
13061;SDS011;6597;52.218;9.882;2024-03-23T13:44:03;3.80;;;1.50;;
13061;SDS011;6597;52.218;9.882;2024-03-23T13:46:32;4.80;;;1.47;;
13061;SDS011;6597;52.218;9.882;2024-03-23T13:48:58;4.80;;;1.90;;
13061;SDS011;6597;52.218;9.882;2024-03-23T13:51:24;4.87;;;1.93;;
13061;SDS011;6597;52.218;9.882;2024-03-23T13:53:52;3.43;;;1.90;;
13061;SDS011;6597;52.218;9.882;2024-03-23T13:56:19;4.17;;;2.40;;
13061;SDS011;6597;52.218;9.882;2024-03-23T13:58:45;4.67;;;2.73;;
13061;SDS011;6597;52.218;9.882;2024-03-23T14:01:13;3.30;;;2.50;;
13061;SDS011;6597;52.218;9.882;2024-03-23T14:03:40;4.77;;;3.10;;
13061;SDS011;6597;52.218;9.882;2024-03-23T14:06:07;3.47;;;1.93;;
13061;SDS011;6597;52.218;9.882;2024-03-23T14:08:34;4.10;;;2.33;;
13061;SDS011;6597;52.218;9.882;2024-03-23T14:11:02;3.37;;;1.80;;
13061;SDS011;6597;52.218;9.882;2024-03-23T14:13:29;3.10;;;1.87;;
13061;SDS011;6597;52.218;9.882;2024-03-23T14:15:56;6.60;;;2.20;;
13061;SDS011;6597;52.218;9.882;2024-03-23T14:18:22;4.50;;;2.17;;
13061;SDS011;6597;52.218;9.882;2024-03-23T14:20:50;4.73;;;2.17;;
13061;SDS011;6597;52.218;9.882;2024-03-23T14:23:16;3.23;;;2.20;;
13061;SDS011;6597;52.218;9.882;2024-03-23T14:25:43;6.70;;;3.17;;
13061;SDS011;6597;52.218;9.882;2024-03-23T14:28:08;7.10;;;2.53;;
13061;SDS011;6597;52.218;9.882;2024-03-23T14:30:39;6.17;;;2.70;;
13061;SDS011;6597;52.218;9.882;2024-03-23T14:33:05;5.67;;;2.40;;
13061;SDS011;6597;52.218;9.882;2024-03-23T14:35:32;4.17;;;1.83;;
13061;SDS011;6597;52.218;9.882;2024-03-23T14:37:59;5.47;;;2.27;;
13061;SDS011;6597;52.218;9.882;2024-03-23T14:40:26;10.47;;;2.70;;
13061;SDS011;6597;52.218;9.882;2024-03-23T14:42:52;7.97;;;2.00;;
13061;SDS011;6597;52.218;9.882;2024-03-23T14:45:20;14.03;;;2.97;;
13061;SDS011;6597;52.218;9.882;2024-03-23T14:47:45;3.10;;;1.03;;
13061;SDS011;6597;52.218;9.882;2024-03-23T14:50:12;2.60;;;1.33;;
13061;SDS011;6597;52.218;9.882;2024-03-23T14:52:40;1.57;;;1.37;;
13061;SDS011;6597;52.218;9.882;2024-03-23T14:55:09;1.90;;;1.30;;
13061;SDS011;6597;52.218;9.882;2024-03-23T14:57:35;1.83;;;1.50;;
13061;SDS011;6597;52.218;9.882;2024-03-23T15:00:01;3.20;;;1.70;;
13061;SDS011;6597;52.218;9.882;2024-03-23T15:02:30;2.03;;;1.60;;
13061;SDS011;6597;52.218;9.882;2024-03-23T15:04:58;3.17;;;1.57;;
13061;SDS011;6597;52.218;9.882;2024-03-23T15:07:24;1.83;;;1.50;;
13061;SDS011;6597;52.218;9.882;2024-03-23T15:09:50;3.73;;;1.87;;
13061;SDS011;6597;52.218;9.882;2024-03-23T15:12:17;1.93;;;1.10;;
13061;SDS011;6597;52.218;9.882;2024-03-23T15:14:44;2.90;;;1.40;;
13061;SDS011;6597;52.218;9.882;2024-03-23T15:17:11;4.87;;;1.40;;
13061;SDS011;6597;52.218;9.882;2024-03-23T15:19:38;2.83;;;1.20;;
13061;SDS011;6597;52.218;9.882;2024-03-23T15:22:03;4.33;;;1.47;;
13061;SDS011;6597;52.218;9.882;2024-03-23T15:24:30;4.20;;;2.00;;
13061;SDS011;6597;52.218;9.882;2024-03-23T15:26:56;2.20;;;1.30;;
13061;SDS011;6597;52.218;9.882;2024-03-23T15:29:24;1.60;;;1.13;;
13061;SDS011;6597;52.218;9.882;2024-03-23T15:31:51;2.73;;;1.63;;
13061;SDS011;6597;52.218;9.882;2024-03-23T15:34:17;1.53;;;1.10;;
13061;SDS011;6597;52.218;9.882;2024-03-23T15:36:44;3.97;;;1.80;;
13061;SDS011;6597;52.218;9.882;2024-03-23T15:39:11;4.80;;;1.57;;
13061;SDS011;6597;52.218;9.882;2024-03-23T15:41:38;2.23;;;1.70;;
13061;SDS011;6597;52.218;9.882;2024-03-23T15:44:05;2.00;;;1.30;;
13061;SDS011;6597;52.218;9.882;2024-03-23T15:46:32;1.83;;;1.30;;
13061;SDS011;6597;52.218;9.882;2024-03-23T15:48:59;4.57;;;1.60;;